createdAt,value
2023-04-26T00:01:11.401Z,47.42
2023-04-26T00:03:40.855Z,47.97
2023-04-26T00:06:14.686Z,47.77
2023-04-26T00:08:43.462Z,47.78
2023-04-26T00:11:12.477Z,47.36
2023-04-26T00:13:41.337Z,47.71
2023-04-26T00:16:10.422Z,47.72
2023-04-26T00:18:39.127Z,47.58
2023-04-26T00:21:08.098Z,48.17
2023-04-26T00:23:38.255Z,47.79
2023-04-26T00:26:07.749Z,48.35
2023-04-26T00:28:36.445Z,48.88
2023-04-26T00:31:05.749Z,48.90
2023-04-26T00:33:34.359Z,49.45
2023-04-26T00:36:03.594Z,48.71
2023-04-26T00:38:32.629Z,49.37
2023-04-26T00:41:03.344Z,49.69
2023-04-26T00:43:32.490Z,50.78
2023-04-26T00:46:01.739Z,51.06
2023-04-26T00:48:30.759Z,51.48
2023-04-26T00:50:59.770Z,50.74
2023-04-26T00:53:28.910Z,50.98
2023-04-26T00:55:59.832Z,50.94
2023-04-26T00:58:30.800Z,51.41
2023-04-26T01:01:01.108Z,50.93
2023-04-26T01:03:30.732Z,51.96
2023-04-26T01:06:00.310Z,51.55
2023-04-26T01:08:29.226Z,51.09
2023-04-26T01:11:00.312Z,51.10
2023-04-26T01:13:33.382Z,50.83
2023-04-26T01:16:04.227Z,51.58
2023-04-26T01:18:32.885Z,51.30
2023-04-26T01:21:03.489Z,51.65
2023-04-26T01:23:33.937Z,51.94
2023-04-26T01:26:02.872Z,51.99
2023-04-26T01:28:31.454Z,52.25
2023-04-26T01:31:00.504Z,52.00
2023-04-26T01:33:29.142Z,52.15
2023-04-26T01:35:58.042Z,52.00
2023-04-26T01:38:26.709Z,52.13
2023-04-26T01:40:57.969Z,52.24
2023-04-26T01:43:26.797Z,52.57
2023-04-26T01:45:56.215Z,52.56
2023-04-26T01:48:31.922Z,52.93
2023-04-26T01:51:03.688Z,52.88
2023-04-26T01:53:32.341Z,53.67
2023-04-26T01:56:03.662Z,53.39
2023-04-26T01:58:33.360Z,53.12
2023-04-26T02:01:08.001Z,53.28
2023-04-26T02:03:36.911Z,52.96
2023-04-26T02:06:06.205Z,53.36
2023-04-26T02:08:35.096Z,53.25
2023-04-26T02:11:05.501Z,53.37
2023-04-26T02:13:35.230Z,53.61
2023-04-26T02:16:04.648Z,53.81
2023-04-26T02:18:33.355Z,53.53
2023-04-26T02:21:02.392Z,53.42
2023-04-26T02:23:33.074Z,53.84
2023-04-26T02:26:02.165Z,54.76
2023-04-26T02:28:32.749Z,54.81
2023-04-26T02:31:03.700Z,54.60
2023-04-26T02:33:32.766Z,54.42
2023-04-26T02:36:05.138Z,54.78
2023-04-26T02:38:35.408Z,54.41
2023-04-26T02:41:06.531Z,54.94
2023-04-26T02:43:37.256Z,54.67
2023-04-26T02:46:08.924Z,54.74
2023-04-26T02:48:37.664Z,54.86
2023-04-26T02:51:07.521Z,55.23
2023-04-26T02:53:36.380Z,55.46
2023-04-26T02:56:06.078Z,55.62
2023-04-26T02:58:38.099Z,55.33
2023-04-26T03:01:08.757Z,54.92
2023-04-26T03:03:38.274Z,54.84
2023-04-26T03:06:08.079Z,54.91
2023-04-26T03:08:36.806Z,54.96
2023-04-26T03:11:06.929Z,54.83
2023-04-26T03:13:37.924Z,55.09
2023-04-26T03:16:08.111Z,55.08
2023-04-26T03:18:38.289Z,55.18
2023-04-26T03:21:08.721Z,55.53
2023-04-26T03:23:37.699Z,55.41
2023-04-26T03:26:06.988Z,56.01
2023-04-26T03:28:37.099Z,56.85
2023-04-26T03:31:06.251Z,55.96
2023-04-26T03:33:35.021Z,56.08
2023-04-26T03:36:04.012Z,56.62
2023-04-26T03:38:33.209Z,57.03
2023-04-26T03:41:02.176Z,57.34
2023-04-26T03:43:32.318Z,57.11
2023-04-26T03:46:03.809Z,57.76
2023-04-26T03:48:32.577Z,58.26
2023-04-26T03:51:03.839Z,58.23
2023-04-26T03:53:32.637Z,57.92
2023-04-26T03:56:01.679Z,59.66
2023-04-26T03:58:31.933Z,62.10
2023-04-26T04:01:01.905Z,65.94
2023-04-26T04:03:32.477Z,69.11
2023-04-26T04:06:21.938Z,70.67
2023-04-26T04:08:52.126Z,73.19
2023-04-26T04:11:21.584Z,73.65
2023-04-26T04:13:50.255Z,74.80
2023-04-26T04:16:19.459Z,74.08
2023-04-26T04:18:49.573Z,75.40
2023-04-26T04:21:18.636Z,73.39
2023-04-26T04:23:48.184Z,71.49
2023-04-26T04:26:17.613Z,69.98
2023-04-26T04:28:47.566Z,68.65
2023-04-26T04:31:17.744Z,67.36
2023-04-26T04:33:47.114Z,66.89
2023-04-26T04:36:17.956Z,65.73
2023-04-26T04:38:47.881Z,65.94
2023-04-26T04:41:20.458Z,65.14
2023-04-26T04:43:49.221Z,63.76
2023-04-26T04:46:18.274Z,62.74
2023-04-26T04:48:47.541Z,61.58
2023-04-26T04:51:17.810Z,62.43
2023-04-26T04:53:46.645Z,61.92
2023-04-26T04:56:15.877Z,62.84
2023-04-26T04:58:44.832Z,61.62
2023-04-26T05:01:15.124Z,62.29
2023-04-26T05:03:50.350Z,64.81
2023-04-26T05:06:22.606Z,66.84
2023-04-26T05:08:51.766Z,65.21
2023-04-26T05:11:21.552Z,65.11
2023-04-26T05:13:52.808Z,66.23
2023-04-26T05:16:23.544Z,67.32
2023-04-26T05:18:52.533Z,67.53
2023-04-26T05:21:24.284Z,67.56
2023-04-26T05:23:53.536Z,68.18
2023-04-26T05:26:23.214Z,68.67
2023-04-26T05:29:01.711Z,68.88
2023-04-26T05:31:45.646Z,69.03
2023-04-26T05:34:32.789Z,68.52
2023-04-26T05:37:03.213Z,69.17
2023-04-26T05:39:32.274Z,69.49
2023-04-26T05:42:01.704Z,69.09
2023-04-26T05:44:30.492Z,70.73
2023-04-26T05:47:19.434Z,71.54
2023-04-26T05:49:48.366Z,72.47
2023-04-26T05:52:18.694Z,73.00
2023-04-26T05:54:48.509Z,71.72
2023-04-26T05:57:19.079Z,70.81
2023-04-26T05:59:48.395Z,72.34
2023-04-26T06:02:19.029Z,70.52
2023-04-26T06:04:47.908Z,70.89
2023-04-26T06:07:20.597Z,71.07
2023-04-26T06:09:49.891Z,71.63
2023-04-26T06:12:19.018Z,70.98
2023-04-26T06:14:48.682Z,71.47
2023-04-26T06:17:22.715Z,70.19
2023-04-26T06:19:51.594Z,68.53
2023-04-26T06:22:22.293Z,70.08
2023-04-26T06:24:51.264Z,71.36
2023-04-26T06:27:20.161Z,71.25
2023-04-26T06:29:50.696Z,71.30
2023-04-26T06:32:20.376Z,70.89
2023-04-26T06:34:48.953Z,68.67
2023-04-26T06:37:18.192Z,67.50
2023-04-26T06:39:48.452Z,69.24
2023-04-26T06:42:17.995Z,67.98
2023-04-26T06:45:05.546Z,68.81
2023-04-26T06:47:36.778Z,68.58
2023-04-26T06:50:06.127Z,68.93
2023-04-26T06:52:35.097Z,68.24
2023-04-26T06:55:05.625Z,69.30
2023-04-26T06:57:35.149Z,69.85
2023-04-26T07:00:06.039Z,68.79
2023-04-26T07:02:36.004Z,69.73
2023-04-26T07:05:05.449Z,71.36
2023-04-26T07:07:34.770Z,72.15
2023-04-26T07:10:05.295Z,71.48
2023-04-26T07:12:34.329Z,71.93
2023-04-26T07:15:03.055Z,72.24
2023-04-26T07:17:32.535Z,71.29
2023-04-26T07:20:01.221Z,71.44
2023-04-26T07:22:30.368Z,72.11
2023-04-26T07:24:59.004Z,71.95
2023-04-26T07:27:29.317Z,71.84
2023-04-26T07:29:57.879Z,71.71
2023-04-26T07:32:26.916Z,71.35
2023-04-26T07:34:55.813Z,71.19
2023-04-26T07:37:24.914Z,71.09
2023-04-26T07:39:53.622Z,71.04
2023-04-26T07:42:22.589Z,70.49
2023-04-26T07:44:52.539Z,70.10
2023-04-26T07:47:21.477Z,69.38
2023-04-26T07:49:54.443Z,69.49
2023-04-26T07:52:23.657Z,67.64
2023-04-26T07:54:52.313Z,66.92
2023-04-26T07:57:21.228Z,65.11
2023-04-26T07:59:49.815Z,64.51
2023-04-26T08:02:25.020Z,65.80
2023-04-26T08:04:58.921Z,64.82
2023-04-26T08:07:27.897Z,64.29
2023-04-26T08:09:56.824Z,64.30
2023-04-26T08:12:25.709Z,65.56
2023-04-26T08:14:54.298Z,65.80
2023-04-26T08:17:24.522Z,64.81
2023-04-26T08:19:53.124Z,64.22
2023-04-26T08:22:22.037Z,64.01
2023-04-26T08:24:51.180Z,63.12
2023-04-26T08:27:20.171Z,65.58
2023-04-26T08:29:49.089Z,65.92
2023-04-26T08:32:17.973Z,66.64
2023-04-26T08:34:48.806Z,66.98
2023-04-26T08:37:18.179Z,65.52
2023-04-26T08:39:46.958Z,66.06
2023-04-26T08:42:17.984Z,65.72
2023-04-26T08:44:46.899Z,66.39
2023-04-26T08:47:20.269Z,65.68
2023-04-26T08:49:59.708Z,64.58
2023-04-26T08:52:32.342Z,62.57
2023-04-26T08:55:01.786Z,63.08
2023-04-26T08:57:33.787Z,63.00
2023-04-26T09:00:05.661Z,62.95
2023-04-26T09:02:35.663Z,62.05
2023-04-26T09:05:08.305Z,62.59
2023-04-26T09:07:43.207Z,61.07
2023-04-26T09:10:13.636Z,60.00
2023-04-26T09:12:42.719Z,63.53
2023-04-26T09:15:12.302Z,62.47
2023-04-26T09:17:42.128Z,61.03
2023-04-26T09:20:23.490Z,59.98
2023-04-26T09:22:53.634Z,61.02
2023-04-26T09:25:29.551Z,61.37
2023-04-26T09:27:58.793Z,61.04
2023-04-26T09:30:28.920Z,61.64
2023-04-26T09:33:00.421Z,62.33
2023-04-26T09:35:31.867Z,62.43
2023-04-26T09:38:09.735Z,62.13
2023-04-26T09:40:42.505Z,61.25
2023-04-26T09:43:13.531Z,60.50
2023-04-26T09:45:49.544Z,60.94
2023-04-26T09:48:22.140Z,60.15
2023-04-26T09:50:54.185Z,58.88
2023-04-26T09:53:31.130Z,57.74
2023-04-26T09:56:08.291Z,57.37
2023-04-26T09:58:39.184Z,58.54
2023-04-26T10:01:10.128Z,59.05
2023-04-26T10:03:39.653Z,59.12
2023-04-26T10:06:09.918Z,59.40
2023-04-26T10:08:38.902Z,58.58
2023-04-26T10:11:10.566Z,59.22
2023-04-26T10:13:39.743Z,56.29
2023-04-26T10:16:10.175Z,54.15
2023-04-26T10:18:39.561Z,54.53
2023-04-26T10:21:21.223Z,52.93
2023-04-26T10:23:51.640Z,51.63
2023-04-26T10:26:52.066Z,50.33
2023-04-26T10:29:22.211Z,53.16
2023-04-26T10:32:12.228Z,50.55
2023-04-26T10:34:41.712Z,50.97
2023-04-26T10:37:13.368Z,50.64
2023-04-26T10:39:43.710Z,49.89
2023-04-26T10:42:26.587Z,48.11
2023-04-26T10:44:56.792Z,47.96
2023-04-26T10:47:33.213Z,47.13
2023-04-26T10:50:07.242Z,46.44
2023-04-26T10:52:38.249Z,45.10
2023-04-26T10:55:08.548Z,45.86
2023-04-26T10:57:53.055Z,46.29
2023-04-26T11:00:31.329Z,47.08
2023-04-26T11:03:13.407Z,46.70
2023-04-26T11:06:07.371Z,46.38
2023-04-26T11:08:37.701Z,44.42
2023-04-26T11:11:12.040Z,42.92
2023-04-26T11:13:42.262Z,43.13
2023-04-26T11:16:12.455Z,43.18
2023-04-26T11:18:43.074Z,41.94
2023-04-26T11:21:15.301Z,40.65
2023-04-26T11:23:54.793Z,38.43
2023-04-26T11:26:24.764Z,40.42
2023-04-26T11:28:53.593Z,41.16
2023-04-26T11:31:22.708Z,41.19
2023-04-26T11:33:51.296Z,41.99
2023-04-26T11:36:20.926Z,42.90
2023-04-26T11:38:51.730Z,44.01
2023-04-26T11:41:24.083Z,44.50
2023-04-26T11:43:52.771Z,43.73
2023-04-26T11:46:23.969Z,42.14
2023-04-26T11:48:53.253Z,42.53
2023-04-26T11:51:24.063Z,40.17
2023-04-26T11:53:54.715Z,39.81
2023-04-26T11:56:23.663Z,40.94
2023-04-26T11:58:54.074Z,37.82
2023-04-26T12:01:52.478Z,37.28
2023-04-26T12:04:21.403Z,37.26
2023-04-26T12:06:52.792Z,36.09
2023-04-26T12:09:26.796Z,35.23
2023-04-26T12:12:00.201Z,34.04
2023-04-26T12:14:32.741Z,33.67
2023-04-26T12:17:03.371Z,32.93
2023-04-26T12:19:34.502Z,31.09
2023-04-26T12:22:03.798Z,31.53
2023-04-26T12:24:35.938Z,31.36
2023-04-26T12:27:06.961Z,31.79
2023-04-26T12:29:36.847Z,31.16
2023-04-26T12:32:06.329Z,30.59
2023-04-26T12:34:35.152Z,30.57
2023-04-26T12:37:05.459Z,30.28
2023-04-26T12:39:35.632Z,29.50
2023-04-26T12:42:05.179Z,29.27
2023-04-26T12:44:33.960Z,29.12
2023-04-26T12:47:02.982Z,29.29
2023-04-26T12:49:31.695Z,30.30
2023-04-26T12:52:01.329Z,30.16
2023-04-26T12:54:30.118Z,30.03
2023-04-26T12:57:00.560Z,30.69
2023-04-26T12:59:29.122Z,30.57
2023-04-26T13:01:58.514Z,31.61
2023-04-26T13:04:27.675Z,30.12
2023-04-26T13:06:57.053Z,30.03
2023-04-26T13:09:26.020Z,30.16
2023-04-26T13:11:55.002Z,30.45
2023-04-26T13:14:24.890Z,30.89
2023-04-26T13:16:54.982Z,31.38
2023-04-26T13:19:23.942Z,30.84
2023-04-26T13:21:53.656Z,31.52
2023-04-26T13:24:22.442Z,33.65
2023-04-26T13:26:51.412Z,33.81
2023-04-26T13:29:20.489Z,33.92
2023-04-26T13:31:51.062Z,32.22
2023-04-26T13:34:19.842Z,33.36
2023-04-26T13:36:48.835Z,33.33
2023-04-26T13:39:17.651Z,33.68
2023-04-26T13:41:46.982Z,33.41
2023-04-26T13:44:15.904Z,33.52
2023-04-26T13:46:45.144Z,32.65
2023-04-26T13:49:16.827Z,32.78
2023-04-26T13:51:47.387Z,32.04
2023-04-26T13:54:16.930Z,32.78
2023-04-26T13:56:46.885Z,33.09
2023-04-26T13:59:15.594Z,33.02
2023-04-26T14:01:46.464Z,32.33
2023-04-26T14:04:16.936Z,31.14
2023-04-26T14:06:46.293Z,31.41
2023-04-26T14:09:14.994Z,31.72
2023-04-26T14:11:44.783Z,31.00
2023-04-26T14:14:16.428Z,31.25
2023-04-26T14:16:45.636Z,30.71
2023-04-26T14:19:15.556Z,31.04
2023-04-26T14:21:46.114Z,31.06
2023-04-26T14:24:15.001Z,30.60
2023-04-26T14:26:44.204Z,30.58
2023-04-26T14:29:12.971Z,30.67
2023-04-26T14:31:42.167Z,30.02
2023-04-26T14:34:11.629Z,29.29
2023-04-26T14:36:40.738Z,30.83
2023-04-26T14:39:10.845Z,30.62
2023-04-26T14:41:39.803Z,30.61
2023-04-26T14:44:08.562Z,30.74
2023-04-26T14:46:38.439Z,30.40
2023-04-26T14:49:07.191Z,30.13
2023-04-26T14:51:36.620Z,29.95
2023-04-26T14:54:05.633Z,30.09
2023-04-26T14:56:37.050Z,30.05
2023-04-26T14:59:05.848Z,29.65
2023-04-26T15:01:34.829Z,29.87
2023-04-26T15:04:03.817Z,30.17
2023-04-26T15:06:34.284Z,30.61
2023-04-26T15:09:04.385Z,30.50
2023-04-26T15:11:34.491Z,31.22
2023-04-26T15:14:04.876Z,30.56
2023-04-26T15:16:33.783Z,30.44
2023-04-26T15:19:02.714Z,30.25
2023-04-26T15:21:31.827Z,30.46
2023-04-26T15:24:00.493Z,30.67
2023-04-26T15:26:31.071Z,30.27
2023-04-26T15:28:59.693Z,30.13
2023-04-26T15:31:30.117Z,30.44
2023-04-26T15:33:59.125Z,29.74
2023-04-26T15:36:28.321Z,30.12
2023-04-26T15:38:57.015Z,30.15
2023-04-26T15:41:26.010Z,29.47
2023-04-26T15:43:55.385Z,30.48
2023-04-26T15:46:24.439Z,30.15
2023-04-26T15:48:54.612Z,30.14
2023-04-26T15:51:23.619Z,30.09
2023-04-26T15:53:52.658Z,29.56
2023-04-26T15:56:21.783Z,29.85
2023-04-26T15:58:50.479Z,29.92
2023-04-26T16:01:19.846Z,30.01
2023-04-26T16:03:49.507Z,30.02
2023-04-26T16:06:20.086Z,30.14
2023-04-26T16:08:48.830Z,29.82
2023-04-26T16:11:17.748Z,29.02
2023-04-26T16:13:47.239Z,29.50
2023-04-26T16:16:16.219Z,30.29
2023-04-26T16:18:44.861Z,29.93
2023-04-26T16:21:14.207Z,29.53
2023-04-26T16:23:45.351Z,29.99
2023-04-26T16:26:14.376Z,29.80
2023-04-26T16:28:43.882Z,30.02
2023-04-26T16:31:12.918Z,29.44
2023-04-26T16:33:41.498Z,29.31
2023-04-26T16:36:10.953Z,29.38
2023-04-26T16:38:39.649Z,29.42
2023-04-26T16:41:10.239Z,28.82
2023-04-26T16:43:39.103Z,29.19
2023-04-26T16:46:09.418Z,28.85
2023-04-26T16:48:39.721Z,28.68
2023-04-26T16:51:28.965Z,28.89
2023-04-26T16:53:58.006Z,28.79
2023-04-26T16:56:28.725Z,29.03
2023-04-26T16:58:57.622Z,28.66
2023-04-26T17:01:27.261Z,29.10
2023-04-26T17:03:57.059Z,28.64
2023-04-26T17:06:26.566Z,29.22
2023-04-26T17:08:55.306Z,29.40
2023-04-26T17:11:24.301Z,29.71
2023-04-26T17:13:54.438Z,29.73
2023-04-26T17:16:23.603Z,29.63
2023-04-26T17:18:52.577Z,29.85
2023-04-26T17:21:21.506Z,30.22
2023-04-26T17:23:50.334Z,29.92
2023-04-26T17:26:19.516Z,29.61
2023-04-26T17:28:48.306Z,30.26
2023-04-26T17:31:18.769Z,30.32
2023-04-26T17:33:48.158Z,30.44
2023-04-26T17:36:17.836Z,30.56
2023-04-26T17:38:46.562Z,30.49
2023-04-26T17:41:17.648Z,31.00
2023-04-26T17:43:46.625Z,30.64
2023-04-26T17:46:36.940Z,30.48
2023-04-26T17:49:06.923Z,30.56
2023-04-26T17:51:36.172Z,30.27
2023-04-26T17:54:05.376Z,30.50
2023-04-26T17:56:34.896Z,30.11
2023-04-26T17:59:03.870Z,30.91
2023-04-26T18:01:33.010Z,30.80
2023-04-26T18:04:03.323Z,31.20
2023-04-26T18:06:32.658Z,31.31
2023-04-26T18:09:01.585Z,31.03
2023-04-26T18:11:30.901Z,30.80
2023-04-26T18:14:00.020Z,30.58
2023-04-26T18:16:30.039Z,31.26
2023-04-26T18:18:58.691Z,32.02
2023-04-26T18:21:29.437Z,31.90
2023-04-26T18:24:00.476Z,31.38
2023-04-26T18:26:30.674Z,31.87
2023-04-26T18:28:59.378Z,31.81
2023-04-26T18:31:29.697Z,31.88
2023-04-26T18:33:59.801Z,31.98
2023-04-26T18:36:32.229Z,31.60
2023-04-26T18:39:01.315Z,31.43
2023-04-26T18:41:30.819Z,31.74
2023-04-26T18:43:59.689Z,32.12
2023-04-26T18:46:48.802Z,31.84
2023-04-26T18:49:17.603Z,32.04
2023-04-26T18:51:48.314Z,32.07
2023-04-26T18:54:17.429Z,32.32
2023-04-26T18:56:46.536Z,32.09
2023-04-26T18:59:15.437Z,32.03
2023-04-26T19:01:44.927Z,32.20
2023-04-26T19:04:13.887Z,32.74
2023-04-26T19:06:42.917Z,32.48
2023-04-26T19:09:13.953Z,31.79
2023-04-26T19:11:43.034Z,32.76
2023-04-26T19:14:12.030Z,32.47
2023-04-26T19:16:41.431Z,31.99
2023-04-26T19:19:11.215Z,32.09
2023-04-26T19:21:40.297Z,31.80
2023-04-26T19:24:09.242Z,32.01
2023-04-26T19:26:39.899Z,32.50
2023-04-26T19:29:10.137Z,31.88
2023-04-26T19:31:39.459Z,33.05
2023-04-26T19:34:08.736Z,31.67
2023-04-26T19:36:38.760Z,32.06
2023-04-26T19:39:08.033Z,32.13
2023-04-26T19:41:37.019Z,32.19
2023-04-26T19:44:07.131Z,31.86
2023-04-26T19:46:37.037Z,32.53
2023-04-26T19:49:06.062Z,32.18
2023-04-26T19:51:35.018Z,32.78
2023-04-26T19:54:03.589Z,32.26
2023-04-26T19:56:32.536Z,32.46
2023-04-26T19:59:01.150Z,32.67
2023-04-26T20:01:32.281Z,32.62
2023-04-26T20:04:01.351Z,32.55
2023-04-26T20:06:30.499Z,32.44
2023-04-26T20:08:59.219Z,33.52
2023-04-26T20:11:28.353Z,33.65
2023-04-26T20:13:57.047Z,33.72
2023-04-26T20:16:26.301Z,33.85
2023-04-26T20:18:56.658Z,33.95
2023-04-26T20:21:29.036Z,34.67
2023-04-26T20:23:58.164Z,33.82
2023-04-26T20:26:27.182Z,33.85
2023-04-26T20:28:55.831Z,34.92
2023-04-26T20:31:24.867Z,33.91
2023-04-26T20:33:53.669Z,34.24
2023-04-26T20:36:25.558Z,35.17
2023-04-26T20:38:54.415Z,35.35
2023-04-26T20:41:23.591Z,34.96
2023-04-26T20:43:53.376Z,35.04
2023-04-26T20:46:22.983Z,35.03
2023-04-26T20:48:51.487Z,34.72
2023-04-26T20:51:20.410Z,34.40
2023-04-26T20:53:50.585Z,35.54
2023-04-26T20:56:19.713Z,35.46
2023-04-26T20:58:48.492Z,35.77
2023-04-26T21:01:17.818Z,35.57
2023-04-26T21:03:46.806Z,36.02
2023-04-26T21:06:16.026Z,36.20
2023-04-26T21:08:44.695Z,35.88
2023-04-26T21:11:15.002Z,36.04
2023-04-26T21:13:43.637Z,35.94
2023-04-26T21:16:12.651Z,36.30
2023-04-26T21:18:41.415Z,36.08
2023-04-26T21:21:10.410Z,37.19
2023-04-26T21:23:39.023Z,37.24
2023-04-26T21:26:08.281Z,37.40
2023-04-26T21:28:38.234Z,37.97
2023-04-26T21:31:08.887Z,37.48
2023-04-26T21:33:37.704Z,38.05
2023-04-26T21:36:07.473Z,38.03
2023-04-26T21:38:36.026Z,38.10
2023-04-26T21:41:05.094Z,38.21
2023-04-26T21:43:33.809Z,38.11
2023-04-26T21:46:04.514Z,38.20
2023-04-26T21:48:33.384Z,38.55
2023-04-26T21:51:02.250Z,38.71
2023-04-26T21:53:30.879Z,39.08
2023-04-26T21:55:59.919Z,38.62
2023-04-26T21:58:28.486Z,38.44
2023-04-26T22:00:57.644Z,38.58
2023-04-26T22:03:27.747Z,38.65
2023-04-26T22:05:56.855Z,39.38
2023-04-26T22:08:25.499Z,38.99
2023-04-26T22:10:54.288Z,39.04
2023-04-26T22:13:23.060Z,39.16
2023-04-26T22:15:51.885Z,39.40
2023-04-26T22:18:20.504Z,38.97
2023-04-26T22:20:51.100Z,39.70
2023-04-26T22:23:19.871Z,39.43
2023-04-26T22:25:48.789Z,39.08
2023-04-26T22:28:17.589Z,39.33
2023-04-26T22:30:46.785Z,38.89
2023-04-26T22:33:15.458Z,39.37
2023-04-26T22:35:45.378Z,39.12
2023-04-26T22:38:15.307Z,39.46
2023-04-26T22:40:44.177Z,39.61
2023-04-26T22:43:12.705Z,39.42
2023-04-26T22:45:41.817Z,38.77
2023-04-26T22:48:10.536Z,38.43
2023-04-26T22:50:39.675Z,39.67
2023-04-26T22:53:08.475Z,39.68
2023-04-26T22:55:38.995Z,39.74
2023-04-26T22:58:07.743Z,39.45
2023-04-26T23:00:36.888Z,39.05
2023-04-26T23:03:05.766Z,39.13
2023-04-26T23:05:34.936Z,39.05
2023-04-26T23:08:03.617Z,39.08
2023-04-26T23:10:32.592Z,39.49
2023-04-26T23:13:02.590Z,39.31
2023-04-26T23:15:32.161Z,38.42
2023-04-26T23:18:01.067Z,38.40
2023-04-26T23:20:30.088Z,38.46
2023-04-26T23:22:58.813Z,37.94
2023-04-26T23:25:27.794Z,38.44
2023-04-26T23:27:56.622Z,39.21
2023-04-26T23:30:27.613Z,39.46
2023-04-26T23:32:56.262Z,40.02
2023-04-26T23:35:25.570Z,40.19
2023-04-26T23:37:54.257Z,40.55
2023-04-26T23:40:23.243Z,40.59
2023-04-26T23:42:51.865Z,40.58
2023-04-26T23:45:20.802Z,40.92
2023-04-26T23:47:51.620Z,40.85
2023-04-26T23:50:20.887Z,40.56
2023-04-26T23:52:49.959Z,40.41
2023-04-26T23:55:19.706Z,41.07
2023-04-26T23:57:48.320Z,40.64
